Terminal Aerodrome Forecast
Issued by NWS

Home | Current Version | Previous Version | Text Only | Print | Product List | Glossary On
Versions: 1 2 3 4 5 6 7 8 9 10 11 12 13 14 15 16 17 18
000
FTUS44 KLIX 021837 AAA
TAFMCB
TAF AMD
KMCB 021837Z 0219/0318 00000KT P6SM SCT150
     FM022100 30006KT P6SM -SHRA BKN020 OVC080
     FM030200 35002KT P6SM VCSH OVC015
     FM031200 35004KT P6SM SCT015 BKN025=

USA.gov is the U.S. government's official web portal to all federal, state and local government web resources and services.